Mount Pleasant, Texas
Current Conditions -  °F | °C
As of 11:35 AM on Thursday 30 Oct 2014 (Local Time) from KOSA Reporting Station
Clear Clear  
Wind Chill: 67°   Ceiling: Unl
Heat Index: 67°   Visibility: 7mi
Dew Point: 45°   Wind: 5mph
Humidity: 44%   Direction: 140°SE
Pressure: 30.2"   Gusts: NA
Location:  33.16°N, 94.97°W
Report Text: KOSA 301635Z AUTO 14004KT 7SM CLR 20/07 A3020 RMK AO1 T01970072
Loading
Personal Weather Stations






























Interactive Weather Map
Tropical Storm Tracking
New forecast layout! Learn more

10-Day Weather Forecast

Advertisements
Track Severe Weather on mobile